Dunbar, Wisconsin
Current Conditions -  °F | °C
As of 8:14 AM on Monday 20 Oct 2014 (Local Time) from KIMT Reporting Station
Overcast Overcast  
Wind Chill: 41°   Ceiling: 3800
Heat Index: 46°   Visibility: 10mi
Dew Point: 42°   Wind: 9mph
Humidity: 86%   Direction: 320°NW
Pressure: 29.83"   Gusts: NA
Location:  45.65°N, 88.17°W
Report Text: KIMT 201314Z AUTO 32008KT 10SM SCT014 OVC038 08/06 A2983 RMK AO2 T00780056
Loading
Personal Weather Stations






























Interactive Weather Map
Tropical Storm Tracking
New forecast layout! Learn more

10-Day Weather Forecast

Advertisements
Track Severe Weather on mobile